SASJ/JUJ METAR and TAF weather

Enter ICAO airport designator
Station Type Date Time Source
SASJ METAR 2022/06/28 23:00 UTC NOAA

SASJ 282300Z VRB02KT 9999 FEW005 13/05 Q1023 RMK PP000


Station Type Date Time Source
SASJ Decoded METAR 2022/06/28 23:00 UTC NOAA

Jujuy Aerodrome, Argentina (SASJ) 24-23S 065-05W 905M
Jun 28, 2022 - 07:00 PM EDT / 2022.06.28 2300 UTC
Wind: Variable at 2 MPH (2 KT):0
Visibility: greater than 7 mile(s):0
Sky conditions: mostly clear
Temperature: 55 F (13 C)
Dew Point: 41 F (5 C)
Relative Humidity: 58%
Pressure (altimeter): 30.21 in. Hg (1023 hPa)
ob: SASJ 282300Z VRB02KT 9999 FEW005 13/05 Q1023 RMK PP000
cycle: 23

Station Type Date Time Source
SASJ TAF 2022/06/28 18:18 UTC NOAA

TAF SASJ 281700Z 2818/2918 18010KT 9999 SCT035 TX19/2918Z TN07/2910Z
BECMG 2823/2902 VRB04KT CAVOK PROB40 2907/2910 27005KT 5000 BR SCT010 BKN020
BECMG 2913/2915 05010KT 9999 NSW SCT020

Example: see airport list